Time;durP1;ratioP1;P1;durP2;ratioP2;P2;SDS_P1;SDS_P2;PMS_P1;PMS_P2;Temp;Humidity;BMP_temperature;BMP_pressure;BME280_temperature;BME280_humidity;BME280_pressure;Samples;Min_cycle;Max_cycle;Signal;HPM_P1;HPM_P2
2023/05/28 00:00:14;;;;;;;5.97;2.67;;;;;;;;;;5112794;28;20913;-80
2023/05/28 00:02:40;;;;;;;4.53;2.10;;;;;;;;;;5112795;28;20407;-82
2023/05/28 00:05:06;;;;;;;4.67;2.10;;;;;;;;;;5112743;28;20411;-79
2023/05/28 00:07:32;;;;;;;5.90;2.27;;;;;;;;;;5094586;28;20914;-79
2023/05/28 00:09:58;;;;;;;6.27;2.90;;;;;;;;;;5112655;28;20406;-79
2023/05/28 00:12:24;;;;;;;4.20;1.60;;;;;;;;;;5112912;28;20422;-79
2023/05/28 00:14:50;;;;;;;5.70;1.77;;;;;;;;;;5113006;28;20405;-79
2023/05/28 00:17:16;;;;;;;6.67;2.30;;;;;;;;;;5094201;28;20847;-79
2023/05/28 00:19:43;;;;;;;3.20;1.50;;;;;;;;;;5094461;28;20409;-79
2023/05/28 00:22:09;;;;;;;5.20;2.63;;;;;;;;;;5112941;28;20405;-82
2023/05/28 00:24:35;;;;;;;11.50;3.30;;;;;;;;;;5112589;28;20402;-81
2023/05/28 00:27:00;;;;;;;7.40;2.10;;;;;;;;;;5112832;28;20469;-80
2023/05/28 00:29:27;;;;;;;6.63;2.53;;;;;;;;;;5112893;28;20409;-80
2023/05/28 00:32:02;;;;;;;5.00;2.30;;;;;;;;;;5112689;28;20502;-80
2023/05/28 00:34:30;;;;;;;3.73;1.90;;;;;;;;;;5110711;28;20405;-81
2023/05/28 00:36:56;;;;;;;4.93;2.23;;;;;;;;;;5111858;28;20812;-80
2023/05/28 00:39:22;;;;;;;6.23;2.40;;;;;;;;;;5115541;28;20410;-80
2023/05/28 00:41:48;;;;;;;5.53;2.20;;;;;;;;;;5116565;28;20411;-80
2023/05/28 00:44:14;;;;;;;4.23;2.33;;;;;;;;;;5098358;28;20183;-81
2023/05/28 00:46:44;;;;;;;8.47;2.73;;;;;;;;;;5116326;28;21069;-81
2023/05/28 00:49:11;;;;;;;4.43;2.63;;;;;;;;;;5113075;28;20462;-81
2023/05/28 00:51:40;;;;;;;7.63;2.57;;;;;;;;;;5106591;28;20951;-83
2023/05/28 00:54:06;;;;;;;6.07;2.37;;;;;;;;;;5105758;28;20415;-81
2023/05/28 00:56:32;;;;;;;4.30;1.77;;;;;;;;;;5102626;28;20816;-81
2023/05/28 00:59:06;;;;;;;2.70;1.80;;;;;;;;;;5103762;28;20422;-81
2023/05/28 01:01:32;;;;;;;4.20;2.00;;;;;;;;;;5095818;28;20489;-82
2023/05/28 01:04:00;;;;;;;5.10;2.23;;;;;;;;;;5108258;28;20449;-83
2023/05/28 01:06:28;;;;;;;4.17;1.67;;;;;;;;;;5086248;28;20997;-80
2023/05/28 01:08:55;;;;;;;5.00;1.83;;;;;;;;;;5081073;28;20413;-83
2023/05/28 01:11:30;;;;;;;6.73;1.80;;;;;;;;;;5095713;28;20413;-81
2023/05/28 01:13:56;;;;;;;4.60;1.70;;;;;;;;;;5098439;28;20909;-82
2023/05/28 01:16:22;;;;;;;5.17;1.77;;;;;;;;;;5077398;28;20450;-82
2023/05/28 01:18:48;;;;;;;5.27;1.70;;;;;;;;;;5095439;28;20445;-82
2023/05/28 01:21:15;;;;;;;6.10;2.13;;;;;;;;;;5077280;28;20966;-79
2023/05/28 01:23:45;;;;;;;4.87;1.67;;;;;;;;;;5095593;28;20401;-80
2023/05/28 01:26:14;;;;;;;6.70;2.10;;;;;;;;;;5106661;28;20472;-79
2023/05/28 01:28:44;;;;;;;4.40;1.57;;;;;;;;;;5115823;28;20418;-80
2023/05/28 01:31:10;;;;;;;2.90;2.00;;;;;;;;;;5115725;28;20402;-80
2023/05/28 01:33:36;;;;;;;4.03;2.03;;;;;;;;;;5115679;28;20466;-79
2023/05/28 01:36:07;;;;;;;5.33;2.00;;;;;;;;;;5115548;28;20420;-80
2023/05/28 01:38:33;;;;;;;5.67;2.73;;;;;;;;;;5136237;27;20415;-80
2023/05/28 01:40:59;;;;;;;4.90;2.03;;;;;;;;;;5135634;27;20444;-80
2023/05/28 01:43:26;;;;;;;4.33;1.83;;;;;;;;;;5136095;27;20414;-80
2023/05/28 01:45:52;;;;;;;6.77;2.00;;;;;;;;;;5135975;27;20470;-80
2023/05/28 01:48:18;;;;;;;3.77;1.90;;;;;;;;;;5126342;27;20818;-80
2023/05/28 01:50:43;;;;;;;5.67;2.50;;;;;;;;;;5094518;28;20542;-79
2023/05/28 01:53:09;;;;;;;6.83;2.00;;;;;;;;;;5094927;28;20458;-80
2023/05/28 01:55:36;;;;;;;5.13;2.07;;;;;;;;;;5094466;28;20412;-80
2023/05/28 01:58:02;;;;;;;4.30;2.10;;;;;;;;;;5076705;28;20421;-80
2023/05/28 02:00:28;;;;;;;5.90;1.93;;;;;;;;;;5094844;28;20552;-82
2023/05/28 02:02:53;;;;;;;9.53;8.80;;;;;;;;;;5094577;28;20915;-84
2023/05/28 02:05:19;;;;;;;6.57;1.80;;;;;;;;;;5094596;28;20458;-80
2023/05/28 02:07:46;;;;;;;5.57;3.20;;;;;;;;;;5097457;28;20786;-79
2023/05/28 02:10:11;;;;;;;5.43;2.07;;;;;;;;;;5096383;28;20183;-81
2023/05/28 02:12:37;;;;;;;14.93;13.83;;;;;;;;;;5114926;28;20407;-79
2023/05/28 02:15:04;;;;;;;5.87;1.90;;;;;;;;;;5114942;28;20412;-79
2023/05/28 02:17:30;;;;;;;4.40;1.63;;;;;;;;;;5114813;28;20455;-80
2023/05/28 02:19:56;;;;;;;4.77;1.70;;;;;;;;;;5114670;28;20405;-83
2023/05/28 02:22:22;;;;;;;2.57;1.67;;;;;;;;;;5114845;28;20506;-81
2023/05/28 02:24:49;;;;;;;3.90;1.60;;;;;;;;;;5114390;28;20543;-81
2023/05/28 02:27:16;;;;;;;2.83;1.77;;;;;;;;;;5114554;28;20299;-80
2023/05/28 02:29:43;;;;;;;2.67;1.20;;;;;;;;;;5114499;28;20830;-80
2023/05/28 02:32:09;;;;;;;5.47;2.20;;;;;;;;;;5114237;28;20417;-81
2023/05/28 02:34:35;;;;;;;13.77;12.87;;;;;;;;;;5114505;28;20944;-80
2023/05/28 02:37:01;;;;;;;4.70;1.97;;;;;;;;;;5114606;28;20896;-84
2023/05/28 02:39:26;;;;;;;5.10;1.90;;;;;;;;;;5114079;28;20409;-79
2023/05/28 02:41:52;;;;;;;9.40;2.57;;;;;;;;;;5114314;28;20426;-83
2023/05/28 02:44:18;;;;;;;4.33;2.20;;;;;;;;;;5114355;28;20407;-82
2023/05/28 02:46:44;;;;;;;2.70;1.43;;;;;;;;;;5114245;28;20213;-80
2023/05/28 02:49:10;;;;;;;3.30;1.50;;;;;;;;;;5110435;27;20413;-80
2023/05/28 02:51:36;;;;;;;3.50;2.13;;;;;;;;;;5093519;28;20473;-81
2023/05/28 02:54:02;;;;;;;5.23;1.50;;;;;;;;;;5093422;28;20463;-82
2023/05/28 02:56:34;;;;;;;4.50;1.63;;;;;;;;;;5075363;28;20413;-81
2023/05/28 02:59:00;;;;;;;5.80;2.10;;;;;;;;;;5093391;28;20962;-81
2023/05/28 03:01:26;;;;;;;5.40;2.23;;;;;;;;;;5093016;28;20427;-81
2023/05/28 03:03:52;;;;;;;5.50;1.67;;;;;;;;;;5093668;28;20414;-82
2023/05/28 03:06:18;;;;;;;5.60;1.80;;;;;;;;;;5075154;28;20482;-82
2023/05/28 03:08:44;;;;;;;19.47;18.27;;;;;;;;;;5098240;28;20597;-82
2023/05/28 03:11:10;;;;;;;3.90;1.60;;;;;;;;;;5081541;28;20482;-82
2023/05/28 03:13:36;;;;;;;7.97;2.30;;;;;;;;;;5103013;28;20402;-82
2023/05/28 03:16:02;;;;;;;9.63;2.63;;;;;;;;;;5083024;28;20425;-81
2023/05/28 03:18:28;;;;;;;6.13;5.53;;;;;;;;;;5102941;28;20434;-82
2023/05/28 03:20:54;;;;;;;5.80;2.10;;;;;;;;;;5084876;28;20474;-81
2023/05/28 03:23:20;;;;;;;5.10;2.50;;;;;;;;;;5101312;28;20176;-83
2023/05/28 03:25:45;;;;;;;6.10;2.00;;;;;;;;;;5102776;28;20979;-80
2023/05/28 03:28:11;;;;;;;3.93;1.70;;;;;;;;;;5102310;28;20225;-80
2023/05/28 03:30:37;;;;;;;4.07;1.90;;;;;;;;;;5105768;27;20699;-81
2023/05/28 03:33:03;;;;;;;3.33;1.87;;;;;;;;;;5103490;28;20826;-80
2023/05/28 03:35:29;;;;;;;6.80;3.45;;;;;;;;;;5082609;28;20503;-80
2023/05/28 03:37:58;;;;;;;4.93;2.20;;;;;;;;;;5083702;28;20167;-79
2023/05/28 03:40:24;;;;;;;6.10;1.90;;;;;;;;;;5102864;28;20172;-80
2023/05/28 03:42:59;;;;;;;7.13;2.47;;;;;;;;;;5083783;28;20489;-80
2023/05/28 03:45:25;;;;;;;5.90;2.30;;;;;;;;;;5101177;28;20447;-80
2023/05/28 03:47:51;;;;;;;5.97;2.00;;;;;;;;;;5102177;28;20897;-81
2023/05/28 03:50:17;;;;;;;4.93;1.27;;;;;;;;;;5102606;28;20460;-81
2023/05/28 03:52:43;;;;;;;7.40;2.20;;;;;;;;;;5082800;28;20175;-80
2023/05/28 03:55:09;;;;;;;3.83;2.33;;;;;;;;;;5101993;28;20410;-80
2023/05/28 03:57:34;;;;;;;3.53;2.10;;;;;;;;;;5095502;28;20226;-81
2023/05/28 04:00:01;;;;;;;7.80;2.27;;;;;;;;;;5092869;28;20412;-82
2023/05/28 04:02:26;;;;;;;6.57;2.50;;;;;;;;;;5092916;28;20399;-80
2023/05/28 04:04:52;;;;;;;3.40;1.63;;;;;;;;;;5093004;28;21014;-81
2023/05/28 04:07:18;;;;;;;6.47;2.63;;;;;;;;;;5074612;28;20970;-81
2023/05/28 04:09:44;;;;;;;5.00;4.30;;;;;;;;;;5074591;28;20423;-81
2023/05/28 04:12:12;;;;;;;3.53;2.00;;;;;;;;;;5074974;28;20433;-80
2023/05/28 04:14:39;;;;;;;5.33;2.03;;;;;;;;;;5078514;28;20412;-80
2023/05/28 04:17:05;;;;;;;4.83;2.13;;;;;;;;;;5097108;28;20416;-81
2023/05/28 04:19:31;;;;;;;4.13;2.27;;;;;;;;;;5097034;28;20556;-81
2023/05/28 04:21:57;;;;;;;4.70;1.70;;;;;;;;;;5096959;28;20470;-80
2023/05/28 04:24:23;;;;;;;6.80;2.37;;;;;;;;;;5096680;28;20428;-81
2023/05/28 04:26:48;;;;;;;4.03;1.60;;;;;;;;;;5096867;28;20975;-81
2023/05/28 04:29:15;;;;;;;3.87;2.13;;;;;;;;;;5096935;28;20779;-80
2023/05/28 04:31:41;;;;;;;13.60;12.57;;;;;;;;;;5096701;28;20415;-80
2023/05/28 04:34:07;;;;;;;3.60;2.17;;;;;;;;;;5096654;28;20404;-80
2023/05/28 04:36:36;;;;;;;2.03;1.27;;;;;;;;;;5096730;28;20420;-81
2023/05/28 04:39:04;;;;;;;13.70;12.60;;;;;;;;;;5078127;28;20416;-81
2023/05/28 04:41:30;;;;;;;5.20;2.00;;;;;;;;;;5096680;28;20509;-81
2023/05/28 04:43:56;;;;;;;4.67;1.83;;;;;;;;;;5096590;28;20463;-81
2023/05/28 04:46:25;;;;;;;4.53;2.67;;;;;;;;;;5096177;28;20464;-81
2023/05/28 04:48:51;;;;;;;5.00;2.63;;;;;;;;;;5096446;28;20408;-81
2023/05/28 04:51:18;;;;;;;5.30;3.03;;;;;;;;;;5096324;28;20458;-81
2023/05/28 04:53:44;;;;;;;3.87;2.60;;;;;;;;;;5096165;28;20777;-81
2023/05/28 04:56:10;;;;;;;8.37;2.70;;;;;;;;;;5096344;28;20416;-81
2023/05/28 04:58:36;;;;;;;5.30;2.30;;;;;;;;;;5096325;28;20825;-80
2023/05/28 05:01:02;;;;;;;5.23;2.00;;;;;;;;;;5096241;28;20452;-80
2023/05/28 05:03:29;;;;;;;3.57;2.27;;;;;;;;;;5096211;28;20544;-81
2023/05/28 05:05:54;;;;;;;7.07;6.43;;;;;;;;;;5096118;28;20557;-81
2023/05/28 05:08:20;;;;;;;4.20;1.90;;;;;;;;;;5095777;28;20432;-81
2023/05/28 05:10:47;;;;;;;5.87;2.03;;;;;;;;;;5077961;28;20500;-82
2023/05/28 05:13:13;;;;;;;5.40;3.30;;;;;;;;;;5096050;28;20163;-81
2023/05/28 05:15:39;;;;;;;4.60;2.17;;;;;;;;;;5095947;28;20415;-80
2023/05/28 05:18:05;;;;;;;9.77;2.37;;;;;;;;;;5095945;28;20214;-81
2023/05/28 05:20:31;;;;;;;2.93;1.50;;;;;;;;;;5095960;28;20179;-81
2023/05/28 05:22:57;;;;;;;7.23;2.80;;;;;;;;;;5095913;28;20406;-81
2023/05/28 05:25:23;;;;;;;3.90;3.00;;;;;;;;;;5094882;28;20207;-81
2023/05/28 05:27:51;;;;;;;4.37;2.43;;;;;;;;;;5095773;28;20766;-80
2023/05/28 05:30:17;;;;;;;7.60;2.03;;;;;;;;;;5095681;28;20499;-81
2023/05/28 05:32:43;;;;;;;8.53;3.23;;;;;;;;;;5095648;28;20502;-81
2023/05/28 05:35:09;;;;;;;9.13;2.97;;;;;;;;;;5077475;28;20410;-81
2023/05/28 05:37:35;;;;;;;10.97;3.20;;;;;;;;;;5095621;28;20511;-81
2023/05/28 05:40:04;;;;;;;7.37;3.30;;;;;;;;;;5095170;28;20403;-80
2023/05/28 05:42:30;;;;;;;8.13;2.47;;;;;;;;;;5095302;28;20507;-81
2023/05/28 05:44:56;;;;;;;9.50;2.63;;;;;;;;;;5095358;28;20498;-81
2023/05/28 05:47:22;;;;;;;16.83;15.73;;;;;;;;;;5095293;28;20258;-81
2023/05/28 05:49:48;;;;;;;14.83;2.30;;;;;;;;;;5077100;28;20280;-81
2023/05/28 05:52:13;;;;;;;6.27;2.20;;;;;;;;;;5095299;28;20420;-81
2023/05/28 05:54:39;;;;;;;6.60;2.43;;;;;;;;;;5094923;28;20407;-80
2023/05/28 05:57:05;;;;;;;6.70;2.47;;;;;;;;;;5095176;28;20901;-79
2023/05/28 05:59:31;;;;;;;5.63;2.60;;;;;;;;;;5077074;28;20927;-79
2023/05/28 06:01:57;;;;;;;6.63;2.30;;;;;;;;;;5095128;28;20415;-79
2023/05/28 06:04:23;;;;;;;4.40;2.80;;;;;;;;;;5095086;28;20423;-79
2023/05/28 06:06:49;;;;;;;3.80;1.90;;;;;;;;;;5076766;28;20518;-80
2023/05/28 06:09:16;;;;;;;7.80;2.03;;;;;;;;;;5094640;28;20464;-80
2023/05/28 06:11:42;;;;;;;9.17;2.87;;;;;;;;;;5094838;28;20172;-80
2023/05/28 06:14:08;;;;;;;5.67;1.63;;;;;;;;;;5094783;28;20457;-80
2023/05/28 06:16:34;;;;;;;8.73;8.03;;;;;;;;;;5094802;28;20453;-80
2023/05/28 06:19:00;;;;;;;10.67;9.77;;;;;;;;;;5076673;28;20278;-81
2023/05/28 06:21:26;;;;;;;3.40;1.87;;;;;;;;;;5094709;28;20412;-81
2023/05/28 06:23:53;;;;;;;6.60;2.73;;;;;;;;;;5094385;28;20425;-81
2023/05/28 06:26:18;;;;;;;5.10;2.17;;;;;;;;;;5094592;28;20476;-81
2023/05/28 06:28:44;;;;;;;3.17;1.43;;;;;;;;;;5076411;28;20413;-81
2023/05/28 06:31:11;;;;;;;6.03;1.87;;;;;;;;;;5094596;28;20175;-81
2023/05/28 06:33:37;;;;;;;6.50;2.33;;;;;;;;;;5094514;28;20170;-81
2023/05/28 06:36:03;;;;;;;5.10;2.33;;;;;;;;;;5093552;28;20415;-81
2023/05/28 06:38:28;;;;;;;6.80;2.23;;;;;;;;;;5094100;28;20537;-81
2023/05/28 06:40:54;;;;;;;5.40;1.27;;;;;;;;;;5094365;28;20414;-81
2023/05/28 06:43:20;;;;;;;4.57;1.93;;;;;;;;;;5094326;28;20171;-81
2023/05/28 06:45:46;;;;;;;4.63;2.03;;;;;;;;;;5094142;28;20454;-81
2023/05/28 06:48:12;;;;;;;4.60;1.87;;;;;;;;;;5075874;28;20188;-81
2023/05/28 06:50:38;;;;;;;5.50;3.17;;;;;;;;;;5094066;28;20266;-81
2023/05/28 06:53:04;;;;;;;8.93;2.10;;;;;;;;;;5093805;28;20207;-81
2023/05/28 06:55:30;;;;;;;2.90;1.27;;;;;;;;;;5094233;28;20175;-82
2023/05/28 06:57:56;;;;;;;4.43;2.43;;;;;;;;;;5094057;28;20412;-82
2023/05/28 07:00:22;;;;;;;3.23;1.70;;;;;;;;;;5093984;28;20176;-82
2023/05/28 07:02:48;;;;;;;5.83;3.10;;;;;;;;;;5093968;28;20566;-82
2023/05/28 07:05:14;;;;;;;3.90;2.37;;;;;;;;;;5093844;28;20497;-82
2023/05/28 07:07:40;;;;;;;4.70;1.43;;;;;;;;;;5093969;28;20170;-82
2023/05/28 07:10:07;;;;;;;5.63;1.90;;;;;;;;;;5093376;28;21013;-82
2023/05/28 07:12:33;;;;;;;7.80;2.00;;;;;;;;;;5093772;28;20901;-82
2023/05/28 07:14:59;;;;;;;5.00;1.80;;;;;;;;;;5093663;28;20461;-83
2023/05/28 07:17:24;;;;;;;16.33;15.17;;;;;;;;;;5093648;28;20172;-82
2023/05/28 07:19:50;;;;;;;17.27;16.07;;;;;;;;;;5093596;28;20404;-82
2023/05/28 07:22:16;;;;;;;5.67;2.40;;;;;;;;;;5093487;28;20530;-82
2023/05/28 07:24:42;;;;;;;7.57;5.97;;;;;;;;;;5093081;28;20413;-82
2023/05/28 07:27:09;;;;;;;7.50;4.87;;;;;;;;;;5093359;28;20677;-81
2023/05/28 07:29:36;;;;;;;6.00;1.73;;;;;;;;;;5093527;28;20222;-82
2023/05/28 07:32:02;;;;;;;4.60;1.60;;;;;;;;;;5093317;28;20520;-82
2023/05/28 07:34:28;;;;;;;5.80;3.17;;;;;;;;;;5093319;28;20810;-82
2023/05/28 07:36:54;;;;;;;9.63;8.63;;;;;;;;;;5093248;28;20495;-81
2023/05/28 07:39:20;;;;;;;15.73;14.63;;;;;;;;;;5093024;28;20406;-81
2023/05/28 07:41:46;;;;;;;20.53;19.13;;;;;;;;;;5093209;28;20539;-82
2023/05/28 07:44:12;;;;;;;19.10;18.00;;;;;;;;;;5093338;28;20176;-82
2023/05/28 07:46:41;;;;;;;19.43;18.00;;;;;;;;;;5092831;28;20511;-83
2023/05/28 07:49:07;;;;;;;6.43;5.53;;;;;;;;;;5075002;28;20171;-83
2023/05/28 07:51:33;;;;;;;4.40;1.30;;;;;;;;;;5093024;28;20492;-86
2023/05/28 07:53:59;;;;;;;7.17;1.87;;;;;;;;;;5074687;28;20825;-82
2023/05/28 07:56:26;;;;;;;4.40;2.10;;;;;;;;;;5093075;28;20416;-83
2023/05/28 07:58:51;;;;;;;3.67;1.83;;;;;;;;;;5075060;28;20826;-83
2023/05/28 08:01:17;;;;;;;3.63;1.27;;;;;;;;;;5093062;28;20507;-87
2023/05/28 08:03:43;;;;;;;7.57;1.73;;;;;;;;;;5093141;28;20178;-86
2023/05/28 08:06:09;;;;;;;4.33;1.73;;;;;;;;;;5092800;28;20464;-82
2023/05/28 08:08:35;;;;;;;3.63;1.97;;;;;;;;;;5092582;28;20202;-83
2023/05/28 08:11:01;;;;;;;4.67;1.33;;;;;;;;;;5096390;28;20887;-85
2023/05/28 08:13:27;;;;;;;6.00;3.07;;;;;;;;;;5133660;28;20173;-84
2023/05/28 08:15:53;;;;;;;6.50;1.87;;;;;;;;;;5115513;28;20181;-84
2023/05/28 08:18:19;;;;;;;4.20;1.90;;;;;;;;;;5133799;28;20220;-82
2023/05/28 08:20:45;;;;;;;3.90;1.53;;;;;;;;;;5133682;28;20892;-85
2023/05/28 08:23:11;;;;;;;5.03;1.80;;;;;;;;;;5114931;28;20175;-83
2023/05/28 08:25:37;;;;;;;5.53;2.30;;;;;;;;;;5133620;28;20592;-82
2023/05/28 08:28:04;;;;;;;4.30;3.50;;;;;;;;;;5115422;28;20575;-83
2023/05/28 08:30:30;;;;;;;6.27;1.87;;;;;;;;;;5133697;28;20167;-83
2023/05/28 08:32:56;;;;;;;4.17;1.87;;;;;;;;;;5133660;28;20474;-82
2023/05/28 08:35:22;;;;;;;7.13;2.17;;;;;;;;;;5133547;28;20447;-84
2023/05/28 08:37:49;;;;;;;4.43;1.73;;;;;;;;;;5133200;28;20174;-82
2023/05/28 08:40:15;;;;;;;7.90;2.43;;;;;;;;;;5133625;28;20167;-82
2023/05/28 08:42:41;;;;;;;6.27;2.73;;;;;;;;;;5133475;28;20417;-82
2023/05/28 08:45:07;;;;;;;5.17;4.53;;;;;;;;;;5133536;28;20583;-83
2023/05/28 08:47:34;;;;;;;4.50;1.40;;;;;;;;;;5133552;28;20428;-83
2023/05/28 08:50:06;;;;;;;4.70;3.50;;;;;;;;;;5133294;28;20491;-84
2023/05/28 08:52:33;;;;;;;3.60;2.50;;;;;;;;;;5133157;28;20413;-88
2023/05/28 08:55:03;;;;;;;6.00;1.90;;;;;;;;;;5133397;28;20960;-83
2023/05/28 08:57:29;;;;;;;4.40;2.03;;;;;;;;;;5133448;28;20435;-82
2023/05/28 08:59:55;;;;;;;5.90;1.97;;;;;;;;;;5135663;27;20438;-84
2023/05/28 09:02:24;;;;;;;6.00;2.23;;;;;;;;;;5118793;27;20832;-83
2023/05/28 09:04:53;;;;;;;3.23;2.23;;;;;;;;;;5118633;27;20755;-81
2023/05/28 09:07:19;;;;;;;3.30;1.67;;;;;;;;;;5137125;27;20537;-81
2023/05/28 09:09:45;;;;;;;6.13;2.37;;;;;;;;;;5118293;27;20407;-82
2023/05/28 09:12:12;;;;;;;7.87;3.17;;;;;;;;;;5136873;27;20416;-81
2023/05/28 09:14:41;;;;;;;6.07;1.70;;;;;;;;;;5136863;27;20405;-82
2023/05/28 09:17:13;;;;;;;3.20;1.97;;;;;;;;;;5128731;27;20441;-80
2023/05/28 09:19:40;;;;;;;4.17;1.97;;;;;;;;;;5088473;28;20486;-81
2023/05/28 09:22:05;;;;;;;3.57;1.70;;;;;;;;;;5115520;28;20419;-82
2023/05/28 09:24:34;;;;;;;5.23;1.87;;;;;;;;;;5115450;28;20497;-80
2023/05/28 09:27:00;;;;;;;4.17;1.80;;;;;;;;;;5115634;28;20503;-79
2023/05/28 09:29:27;;;;;;;2.43;1.10;;;;;;;;;;5115780;28;20405;-80
2023/05/28 09:32:00;;;;;;;4.77;2.07;;;;;;;;;;5115668;28;20827;-80
2023/05/28 09:34:27;;;;;;;4.10;1.77;;;;;;;;;;5115424;28;20408;-80
2023/05/28 09:36:53;;;;;;;3.93;1.90;;;;;;;;;;5115492;28;20956;-80
2023/05/28 09:39:19;;;;;;;4.93;1.30;;;;;;;;;;5115174;28;20509;-81
2023/05/28 09:41:47;;;;;;;2.87;1.60;;;;;;;;;;5115491;28;20250;-81
2023/05/28 09:44:14;;;;;;;4.10;1.70;;;;;;;;;;5114261;28;20171;-80
2023/05/28 09:46:39;;;;;;;4.83;1.70;;;;;;;;;;5114010;28;20500;-87
2023/05/28 09:49:05;;;;;;;4.60;1.87;;;;;;;;;;5115258;28;20931;-84
2023/05/28 09:51:33;;;;;;;3.23;1.40;;;;;;;;;;5113812;28;20363;-82
2023/05/28 09:54:03;;;;;;;3.93;1.30;;;;;;;;;;5113647;28;20168;-82
2023/05/28 09:56:33;;;;;;;2.97;1.30;;;;;;;;;;5115361;28;20431;-82
2023/05/28 09:58:59;;;;;;;6.50;1.47;;;;;;;;;;5115142;28;20500;-83
2023/05/28 10:01:27;;;;;;;5.63;2.10;;;;;;;;;;5113906;28;20429;-83
2023/05/28 10:04:02;;;;;;;6.50;1.80;;;;;;;;;;5115080;28;20409;-83
2023/05/28 10:06:29;;;;;;;17.63;16.70;;;;;;;;;;5115023;28;21050;-83
2023/05/28 10:08:55;;;;;;;3.13;1.60;;;;;;;;;;5096344;28;20784;-84
2023/05/28 10:11:28;;;;;;;3.10;1.27;;;;;;;;;;5113465;28;20421;-84
2023/05/28 10:14:04;;;;;;;2.53;1.00;;;;;;;;;;5113339;28;20421;-83
2023/05/28 10:16:30;;;;;;;4.90;1.70;;;;;;;;;;5114789;28;20409;-87
2023/05/28 10:18:56;;;;;;;4.10;1.40;;;;;;;;;;5113297;28;20503;-82
2023/05/28 10:21:23;;;;;;;3.90;1.67;;;;;;;;;;5113099;28;20418;-82
2023/05/28 10:23:49;;;;;;;5.63;1.63;;;;;;;;;;5114201;28;20493;-82
2023/05/28 10:26:15;;;;;;;4.63;3.63;;;;;;;;;;5112713;28;20513;-85
2023/05/28 10:28:41;;;;;;;3.20;1.60;;;;;;;;;;5114423;28;20508;-81
2023/05/28 10:31:08;;;;;;;2.77;1.93;;;;;;;;;;5118552;27;20993;-82
2023/05/28 10:33:41;;;;;;;17.50;16.30;;;;;;;;;;5113504;28;20471;-82
2023/05/28 10:36:16;;;;;;;29.67;27.77;;;;;;;;;;5110149;28;20409;-84
2023/05/28 10:38:44;;;;;;;4.90;4.33;;;;;;;;;;5085689;28;20437;-85
2023/05/28 10:41:10;;;;;;;5.33;4.80;;;;;;;;;;5093885;28;20782;-85
2023/05/28 10:43:39;;;;;;;12.80;11.57;;;;;;;;;;5092685;28;20506;-82
2023/05/28 10:46:18;;;;;;;4.80;3.20;;;;;;;;;;5093190;28;20977;-85
2023/05/28 10:49:03;;;;;;;3.83;3.50;;;;;;;;;;5093608;28;20410;-87
2023/05/28 10:51:48;;;;;;;5.40;1.43;;;;;;;;;;5091466;28;20474;-85
2023/05/28 10:54:22;;;;;;;2.93;1.73;;;;;;;;;;5074916;28;20438;-85
2023/05/28 10:57:10;;;;;;;3.33;1.70;;;;;;;;;;5110626;27;20413;-88
2023/05/28 10:59:48;;;;;;;3.30;2.40;;;;;;;;;;5093580;28;20928;-85
2023/05/28 11:02:27;;;;;;;3.23;1.00;;;;;;;;;;5093158;28;20416;-90
2023/05/28 11:05:00;;;;;;;4.60;1.83;;;;;;;;;;5083055;28;20429;-86
2023/05/28 11:07:33;;;;;;;5.87;5.50;;;;;;;;;;5094066;28;20469;-88
2023/05/28 11:10:01;;;;;;;6.20;5.80;;;;;;;;;;5093525;28;20446;-87
2023/05/28 11:12:27;;;;;;;4.97;4.50;;;;;;;;;;5093459;28;20497;-87
2023/05/28 11:14:53;;;;;;;5.00;4.27;;;;;;;;;;5093186;28;20438;-85
2023/05/28 11:17:19;;;;;;;3.37;1.40;;;;;;;;;;5092893;28;20425;-84
2023/05/28 11:19:47;;;;;;;4.70;1.50;;;;;;;;;;5092387;28;20414;-85
2023/05/28 11:22:13;;;;;;;2.47;0.90;;;;;;;;;;5092479;28;20398;-84
2023/05/28 11:25:06;;;;;;;3.00;1.80;;;;;;;;;;5093186;28;20415;-84
2023/05/28 11:27:34;;;;;;;2.37;1.20;;;;;;;;;;5072085;28;20922;-87
2023/05/28 11:30:02;;;;;;;3.90;1.63;;;;;;;;;;5095242;28;20906;-84
2023/05/28 11:32:29;;;;;;;4.70;1.40;;;;;;;;;;5075095;28;20954;-83
2023/05/28 11:34:58;;;;;;;3.53;1.40;;;;;;;;;;5099039;28;20467;-85
2023/05/28 11:37:28;;;;;;;2.80;1.57;;;;;;;;;;5092279;28;20770;-86
2023/05/28 11:39:55;;;;;;;3.00;1.53;;;;;;;;;;5092687;28;20913;-84
2023/05/28 11:42:22;;;;;;;3.90;1.40;;;;;;;;;;5103182;28;20484;-83
2023/05/28 11:44:49;;;;;;;4.53;1.50;;;;;;;;;;5093025;28;20406;-87
2023/05/28 11:47:15;;;;;;;3.93;1.77;;;;;;;;;;5092623;28;20510;-87
2023/05/28 11:49:42;;;;;;;5.30;1.43;;;;;;;;;;5076761;28;20997;-84
2023/05/28 11:52:13;;;;;;;3.57;1.80;;;;;;;;;;5090817;28;20449;-85
2023/05/28 11:54:43;;;;;;;3.40;1.70;;;;;;;;;;5091622;28;20410;-83
2023/05/28 11:57:09;;;;;;;2.73;1.90;;;;;;;;;;5073677;28;20552;-81
2023/05/28 11:59:36;;;;;;;3.30;1.60;;;;;;;;;;5091536;28;20429;-82
2023/05/28 12:02:20;;;;;;;2.97;1.70;;;;;;;;;;5093618;28;20460;-84
2023/05/28 12:04:53;;;;;;;4.30;2.20;;;;;;;;;;5093740;28;20797;-82
2023/05/28 12:07:19;;;;;;;2.23;1.10;;;;;;;;;;5093725;28;20502;-83
2023/05/28 12:09:45;;;;;;;4.97;2.57;;;;;;;;;;5112444;28;20807;-83
2023/05/28 12:12:11;;;;;;;5.00;4.17;;;;;;;;;;5093080;28;20168;-85
2023/05/28 12:14:37;;;;;;;3.67;2.93;;;;;;;;;;5092041;28;20819;-83
2023/05/28 12:17:11;;;;;;;4.10;1.80;;;;;;;;;;5092072;28;20444;-85
2023/05/28 12:19:37;;;;;;;3.80;1.57;;;;;;;;;;5099532;28;20413;-85
2023/05/28 12:22:05;;;;;;;3.73;1.70;;;;;;;;;;5112011;28;20914;-83
2023/05/28 12:24:31;;;;;;;5.10;1.50;;;;;;;;;;5112149;28;20447;-84
2023/05/28 12:26:57;;;;;;;4.87;1.80;;;;;;;;;;5112099;28;20469;-82
2023/05/28 12:29:23;;;;;;;2.13;1.20;;;;;;;;;;5111566;28;20183;-84
2023/05/28 12:31:57;;;;;;;3.70;1.20;;;;;;;;;;5109436;28;20184;-83
2023/05/28 12:34:23;;;;;;;3.10;1.50;;;;;;;;;;5116067;27;20180;-82
2023/05/28 12:36:49;;;;;;;3.83;1.20;;;;;;;;;;5098463;28;20423;-83
2023/05/28 12:39:14;;;;;;;5.93;2.00;;;;;;;;;;5116645;28;20496;-85
2023/05/28 12:41:40;;;;;;;2.90;1.70;;;;;;;;;;5098332;28;20179;-83
2023/05/28 12:44:06;;;;;;;4.47;1.90;;;;;;;;;;5114627;28;20210;-83
2023/05/28 12:46:32;;;;;;;1.80;1.50;;;;;;;;;;5116519;28;20203;-83
2023/05/28 12:48:58;;;;;;;3.70;3.37;;;;;;;;;;5116334;28;20168;-83
2023/05/28 12:51:24;;;;;;;4.53;2.07;;;;;;;;;;5115095;28;20224;-84
2023/05/28 12:53:50;;;;;;;4.33;1.93;;;;;;;;;;5115750;28;20255;-82
2023/05/28 12:56:17;;;;;;;3.13;2.27;;;;;;;;;;5116647;28;20255;-83
2023/05/28 12:58:43;;;;;;;3.70;1.73;;;;;;;;;;5115509;28;20199;-83
2023/05/28 13:01:10;;;;;;;4.70;1.70;;;;;;;;;;5116044;28;20440;-83
2023/05/28 13:03:36;;;;;;;3.67;1.50;;;;;;;;;;5116086;28;20172;-83
2023/05/28 13:06:02;;;;;;;3.13;1.70;;;;;;;;;;5116284;28;20509;-84
2023/05/28 13:08:28;;;;;;;2.57;1.50;;;;;;;;;;5115843;28;20704;-83
2023/05/28 13:10:54;;;;;;;4.23;1.90;;;;;;;;;;5098153;28;20413;-83
2023/05/28 13:13:20;;;;;;;3.80;2.83;;;;;;;;;;5097988;28;20452;-83
2023/05/28 13:15:49;;;;;;;5.57;2.13;;;;;;;;;;5115943;28;20416;-83
2023/05/28 13:18:15;;;;;;;4.37;1.60;;;;;;;;;;5116141;28;20250;-82
2023/05/28 13:20:41;;;;;;;3.53;1.67;;;;;;;;;;5116178;28;20476;-83
2023/05/28 13:23:07;;;;;;;4.50;2.00;;;;;;;;;;5115671;28;20551;-83
2023/05/28 13:25:37;;;;;;;3.03;1.93;;;;;;;;;;5115765;28;20909;-83
2023/05/28 13:28:03;;;;;;;7.10;1.80;;;;;;;;;;5115905;28;20178;-84
2023/05/28 13:30:28;;;;;;;3.70;1.60;;;;;;;;;;5115636;28;20406;-83
2023/05/28 13:32:54;;;;;;;3.70;1.83;;;;;;;;;;5115854;28;20472;-83
2023/05/28 13:35:20;;;;;;;3.63;1.30;;;;;;;;;;5111920;28;20206;-84
2023/05/28 13:37:47;;;;;;;8.77;2.70;;;;;;;;;;5109366;28;20264;-83
2023/05/28 13:40:13;;;;;;;4.53;1.67;;;;;;;;;;5106547;28;20191;-83
2023/05/28 13:42:39;;;;;;;3.60;1.83;;;;;;;;;;5103466;28;20471;-83
2023/05/28 13:45:05;;;;;;;5.60;1.80;;;;;;;;;;5105109;28;20805;-83
2023/05/28 13:47:32;;;;;;;2.20;1.73;;;;;;;;;;5124089;27;20468;-83
2023/05/28 13:49:58;;;;;;;3.93;1.50;;;;;;;;;;5135704;27;20444;-83
2023/05/28 13:52:24;;;;;;;4.50;2.93;;;;;;;;;;5117096;27;20512;-83
2023/05/28 13:54:53;;;;;;;2.37;1.83;;;;;;;;;;5107502;28;20180;-83
2023/05/28 13:57:20;;;;;;;3.97;1.30;;;;;;;;;;5087416;28;20483;-82
2023/05/28 13:59:46;;;;;;;4.50;2.40;;;;;;;;;;5084086;28;20406;-83
2023/05/28 14:02:12;;;;;;;3.50;1.90;;;;;;;;;;5086008;28;20415;-83
2023/05/28 14:04:37;;;;;;;3.50;1.47;;;;;;;;;;5101447;28;20818;-83
2023/05/28 14:07:03;;;;;;;4.43;2.13;;;;;;;;;;5104907;27;20247;-85
2023/05/28 14:09:29;;;;;;;4.93;2.07;;;;;;;;;;5104161;28;20231;-84
2023/05/28 14:11:55;;;;;;;2.40;1.60;;;;;;;;;;5084833;28;20422;-83
2023/05/28 14:14:21;;;;;;;2.20;1.53;;;;;;;;;;5084973;28;20409;-83
2023/05/28 14:16:47;;;;;;;3.77;1.83;;;;;;;;;;5104647;28;20221;-84
2023/05/28 14:19:13;;;;;;;4.20;1.40;;;;;;;;;;5084738;28;20501;-83
2023/05/28 14:21:41;;;;;;;4.23;1.80;;;;;;;;;;5102732;28;20497;-83
2023/05/28 14:24:16;;;;;;;3.47;2.10;;;;;;;;;;5086530;28;20321;-85
2023/05/28 14:26:42;;;;;;;3.10;1.97;;;;;;;;;;5103837;28;20461;-83
2023/05/28 14:29:08;;;;;;;4.17;2.27;;;;;;;;;;5102206;28;20451;-84
2023/05/28 14:31:34;;;;;;;3.93;2.10;;;;;;;;;;5085924;28;20271;-83
2023/05/28 14:34:00;;;;;;;4.03;2.00;;;;;;;;;;5085419;28;20399;-86
2023/05/28 14:36:25;;;;;;;4.53;2.30;;;;;;;;;;5102465;28;20778;-83
2023/05/28 14:38:51;;;;;;;7.60;2.37;;;;;;;;;;5101762;28;20168;-83